Time;durP1;ratioP1;P1;durP2;ratioP2;P2;SDS_P1;SDS_P2;PMS_P1;PMS_P2;Temp;Humidity;BMP_temperature;BMP_pressure;BME280_temperature;BME280_humidity;BME280_pressure;Samples;Min_cycle;Max_cycle;Signal;HPM_P1;HPM_P2
2022/12/31 00:00:56;;;;;;;;;;;;;;;3.62;100.00;101100.03;5553487;32;35114;-69
2022/12/31 00:04:04;;;;;;;;;;;;;;;3.58;100.00;101098.59;5553099;32;35296;-69
2022/12/31 00:07:12;;;;;;;;;;;;;;;3.61;100.00;101104.44;5566115;32;35121;-69
2022/12/31 00:10:20;;;;;;;;;;;;;;;3.53;100.00;101105.94;5540964;32;34224;-72
2022/12/31 00:13:27;;;;;;;;;;;;;;;3.57;100.00;101115.25;5567548;32;34187;-69
2022/12/31 00:16:37;;;;;;;;;;;;;;;3.52;100.00;101117.34;5567406;32;34697;-70
2022/12/31 00:19:43;;;;;;;;;;;;;;;3.50;100.00;101125.31;5567265;32;34154;-69
2022/12/31 00:22:50;;;;;;;;;;;;;;;3.49;100.00;101113.16;5552843;32;33042;-69
2022/12/31 00:26:00;;;;;;;;;;;;;;;3.59;100.00;101121.22;5553077;32;34444;-70
2022/12/31 00:29:09;;;;;;;;;;;;;;;3.65;100.00;101123.44;5567010;31;34453;-69
2022/12/31 00:32:15;;;;;;;;;;;;;;;3.54;100.00;101131.19;5567079;32;34983;-69
2022/12/31 00:35:21;;;;;;;;;;;;;;;3.48;100.00;101130.69;5567131;32;34259;-71
2022/12/31 00:38:26;;;;;;;;;;;;;;;3.60;100.00;101138.66;5553396;32;34653;-71
2022/12/31 00:41:32;;;;;;;;;;;;;;;3.51;100.00;101129.63;5552836;32;34580;-69
2022/12/31 00:44:40;;;;;;;;;;;;;;;3.47;100.00;101133.41;5553573;32;34249;-69
2022/12/31 00:47:47;;;;;;;;;;;;;;;3.58;100.00;101146.66;5566845;32;34612;-69
2022/12/31 00:50:54;;;;;;;;;;;;;;;3.55;100.00;101133.72;5566825;32;34069;-69
2022/12/31 00:53:59;;;;;;;;;;;;;;;3.69;100.00;101153.75;5566758;32;35220;-69
2022/12/31 00:57:04;;;;;;;;;;;;;;;3.58;100.00;101156.31;5566692;32;34406;-69
2022/12/31 01:00:10;;;;;;;;;;;;;;;3.55;100.00;101156.50;5566644;32;34273;-70
2022/12/31 01:03:15;;;;;;;;;;;;;;;3.64;100.00;101154.06;5553025;32;34386;-70
2022/12/31 01:06:22;;;;;;;;;;;;;;;3.69;100.00;101144.09;5553176;32;34506;-70
2022/12/31 01:09:27;;;;;;;;;;;;;;;3.60;100.00;101154.41;5566044;32;34879;-69
2022/12/31 01:12:31;;;;;;;;;;;;;;;3.45;100.00;101154.50;5552071;32;32930;-69
2022/12/31 01:15:36;;;;;;;;;;;;;;;3.50;100.00;101155.03;5566309;32;34060;-69
2022/12/31 01:18:42;;;;;;;;;;;;;;;3.58;100.00;101159.75;5566878;32;34933;-70
2022/12/31 01:21:48;;;;;;;;;;;;;;;3.58;100.00;101165.00;5569001;32;34084;-69
2022/12/31 01:24:53;;;;;;;;;;;;;;;3.57;100.00;101158.09;5569026;32;34664;-70
2022/12/31 01:27:57;;;;;;;;;;;;;;;3.59;100.00;101150.09;5542223;32;33283;-69
2022/12/31 01:31:06;;;;;;;;;;;;;;;3.62;100.00;101157.75;5568849;32;34824;-70
2022/12/31 01:34:11;;;;;;;;;;;;;;;3.53;100.00;101163.63;5555028;32;34931;-69
2022/12/31 01:37:18;;;;;;;;;;;;;;;3.48;100.00;101158.72;5554596;32;33342;-70
2022/12/31 01:40:24;;;;;;;;;;;;;;;3.44;100.00;101159.81;5568831;32;34478;-70
2022/12/31 01:43:48;;;;;;;;;;;;;;;3.39;100.00;101161.91;5568879;32;34351;-68
2022/12/31 01:46:54;;;;;;;;;;;;;;;3.41;100.00;101167.91;5568782;32;34889;-70
2022/12/31 01:50:03;;;;;;;;;;;;;;;3.49;100.00;101168.22;5555402;32;34534;-69
2022/12/31 01:53:09;;;;;;;;;;;;;;;3.43;100.00;101169.50;5568746;32;34832;-69
2022/12/31 01:56:18;;;;;;;;;;;;;;;3.45;100.00;101161.50;5555389;32;34352;-68
2022/12/31 01:59:28;;;;;;;;;;;;;;;3.38;100.00;101155.03;5555532;32;34236;-70
2022/12/31 02:02:38;;;;;;;;;;;;;;;3.47;100.00;101167.50;5555590;32;34755;-70
2022/12/31 02:05:53;;;;;;;;;;;;;;;3.53;100.00;101159.25;5568758;32;34298;-71
2022/12/31 02:09:02;;;;;;;;;;;;;;;3.44;100.00;101170.31;5542296;32;32581;-70
2022/12/31 02:12:09;;;;;;;;;;;;;;;3.36;100.00;101170.84;5568624;32;35467;-70
2022/12/31 02:15:19;;;;;;;;;;;;;;;3.36;100.00;101162.97;5568547;32;34318;-70
2022/12/31 02:18:30;;;;;;;;;;;;;;;3.40;100.00;101167.06;5568667;32;34881;-71
2022/12/31 02:21:40;;;;;;;;;;;;;;;3.42;100.00;101165.19;5568552;32;34157;-71
2022/12/31 02:24:47;;;;;;;;;;;;;;;3.42;100.00;101173.06;5568566;32;33901;-71
2022/12/31 02:28:13;;;;;;;;;;;;;;;3.43;100.00;101160.81;5555115;32;34379;-70
2022/12/31 02:31:42;;;;;;;;;;;;;;;3.41;100.00;101158.25;5554091;32;34622;-70
2022/12/31 02:34:59;;;;;;;;;;;;;;;3.49;100.00;101158.59;5548547;32;32847;-70
2022/12/31 02:38:15;;;;;;;;;;;;;;;3.66;100.00;101177.59;5554981;32;34086;-70
2022/12/31 02:44:47;;;;;;;;;;;;;;;3.49;100.00;101179.56;5568181;32;34865;-70
2022/12/31 02:47:59;;;;;;;;;;;;;;;3.53;100.00;101174.12;5554947;32;34253;-71
2022/12/31 02:51:26;;;;;;;;;;;;;;;3.49;100.00;101176.09;5554882;32;34497;-70
2022/12/31 02:54:37;;;;;;;;;;;;;;;3.50;100.00;101176.00;5554885;32;34281;-70
2022/12/31 02:57:50;;;;;;;;;;;;;;;3.63;100.00;101177.81;5568127;32;34026;-70
2022/12/31 03:04:34;;;;;;;;;;;;;;;3.44;100.00;101155.44;5568193;32;34123;-70
2022/12/31 03:07:44;;;;;;;;;;;;;;;3.45;100.00;101145.78;5543683;32;34255;-71
2022/12/31 03:10:55;;;;;;;;;;;;;;;3.49;100.00;101134.97;5567967;32;34266;-71
2022/12/31 03:14:01;;;;;;;;;;;;;;;3.52;100.00;101152.31;5568031;32;34010;-70
2022/12/31 03:17:10;;;;;;;;;;;;;;;3.61;100.00;101162.16;5554724;32;34369;-71
2022/12/31 03:23:48;;;;;;;;;;;;;;;3.49;100.00;101134.12;5567967;32;34858;-71
2022/12/31 03:26:56;;;;;;;;;;;;;;;3.68;100.00;101152.09;5549239;32;34912;-71
2022/12/31 03:30:04;;;;;;;;;;;;;;;3.68;100.00;101168.66;5567810;32;34156;-70
2022/12/31 03:33:12;;;;;;;;;;;;;;;3.68;100.00;101141.63;5567964;32;33925;-71
2022/12/31 03:36:25;;;;;;;;;;;;;;;3.58;100.00;101145.81;5554965;32;34248;-70
2022/12/31 03:39:32;;;;;;;;;;;;;;;3.65;100.00;101157.53;5554605;32;34729;-68
2022/12/31 03:42:41;;;;;;;;;;;;;;;3.61;100.00;101154.31;5554565;32;34864;-70
2022/12/31 03:45:51;;;;;;;;;;;;;;;3.71;100.00;101139.59;5552308;32;33858;-70
2022/12/31 03:48:59;;;;;;;;;;;;;;;3.72;100.00;101135.19;5567574;32;35132;-71
2022/12/31 03:52:07;;;;;;;;;;;;;;;3.73;100.00;101135.06;5567575;32;34214;-71
2022/12/31 03:55:14;;;;;;;;;;;;;;;3.65;100.00;101136.56;5567627;32;34946;-71
2022/12/31 03:58:21;;;;;;;;;;;;;;;3.68;100.00;101152.91;5567826;32;34140;-70
2022/12/31 04:01:30;;;;;;;;;;;;;;;3.69;100.00;101144.09;5567578;32;34262;-71
2022/12/31 04:04:38;;;;;;;;;;;;;;;3.60;100.00;101152.63;5567633;32;34812;-69
2022/12/31 04:07:50;;;;;;;;;;;;;;;3.60;100.00;101157.84;5528795;32;1227081;-70
2022/12/31 04:10:56;;;;;;;;;;;;;;;3.66;100.00;101151.38;5567320;32;34907;-70
2022/12/31 04:14:08;;;;;;;;;;;;;;;3.63;100.00;101147.16;5567448;32;34904;-70
2022/12/31 04:17:19;;;;;;;;;;;;;;;3.59;100.00;101153.56;5554317;32;34096;-69
2022/12/31 04:20:25;;;;;;;;;;;;;;;3.60;100.00;101154.41;5553687;32;34311;-69
2022/12/31 04:23:35;;;;;;;;;;;;;;;3.57;100.00;101149.37;5567256;32;34630;-70
2022/12/31 04:26:43;;;;;;;;;;;;;;;3.55;100.00;101148.63;5567260;32;34932;-69
2022/12/31 04:29:51;;;;;;;;;;;;;;;3.54;100.00;101160.88;5552726;32;33723;-70
2022/12/31 04:32:56;;;;;;;;;;;;;;;3.67;100.00;101174.03;5553690;32;35017;-69
2022/12/31 04:36:04;;;;;;;;;;;;;;;3.68;100.00;101167.84;5567058;32;34939;-70
2022/12/31 04:39:11;;;;;;;;;;;;;;;3.71;100.00;101172.87;5566979;32;34956;-70
2022/12/31 04:42:18;;;;;;;;;;;;;;;3.78;100.00;101174.12;5553623;32;34089;-69
2022/12/31 04:45:24;;;;;;;;;;;;;;;3.92;100.00;101187.97;5566992;32;34279;-69
2022/12/31 04:48:34;;;;;;;;;;;;;;;3.88;100.00;101190.91;5566789;32;34695;-69
2022/12/31 04:51:41;;;;;;;;;;;;;;;3.84;100.00;101199.97;5566720;32;34685;-70
2022/12/31 04:54:50;;;;;;;;;;;;;;;3.78;100.00;101195.97;5568004;32;34589;-69
2022/12/31 04:57:56;;;;;;;;;;;;;;;3.74;100.00;101186.63;5569189;32;34533;-69
2022/12/31 05:01:05;;;;;;;;;;;;;;;3.78;100.00;101203.00;5569166;32;34214;-70
2022/12/31 05:04:14;;;;;;;;;;;;;;;3.64;100.00;101216.22;5569065;32;34873;-70
2022/12/31 05:07:21;;;;;;;;;;;;;;;3.60;100.00;101219.97;5554718;32;33212;-69
2022/12/31 05:10:29;;;;;;;;;;;;;;;3.62;100.00;101218.09;5568898;32;34918;-71
2022/12/31 05:13:36;;;;;;;;;;;;;;;3.54;100.00;101221.22;5568989;32;34884;-70
2022/12/31 05:16:44;;;;;;;;;;;;;;;3.67;100.00;101237.84;5555749;32;34051;-69
2022/12/31 05:19:53;;;;;;;;;;;;;;;3.61;100.00;101233.00;5569041;32;34709;-69
2022/12/31 05:22:59;;;;;;;;;;;;;;;3.55;100.00;101232.56;5568791;32;34339;-70
2022/12/31 05:26:10;;;;;;;;;;;;;;;3.68;100.00;101212.47;5542307;32;34676;-70
2022/12/31 05:29:19;;;;;;;;;;;;;;;3.54;100.00;101233.50;5568777;32;34943;-69
2022/12/31 05:32:25;;;;;;;;;;;;;;;3.65;100.00;101228.38;5568950;32;33973;-70
2022/12/31 05:35:34;;;;;;;;;;;;;;;3.59;100.00;101234.88;5568860;32;34456;-71
2022/12/31 05:38:42;;;;;;;;;;;;;;;3.71;100.00;101235.84;5542166;32;32862;-70
2022/12/31 05:41:51;;;;;;;;;;;;;;;3.61;100.00;101247.91;5555582;32;34034;-70
2022/12/31 05:44:59;;;;;;;;;;;;;;;3.64;100.00;101251.16;5568757;32;34271;-70
2022/12/31 05:48:05;;;;;;;;;;;;;;;3.63;100.00;101251.28;5555264;32;33858;-70
2022/12/31 05:51:11;;;;;;;;;;;;;;;3.72;100.00;101255.91;5554401;32;33368;-71
2022/12/31 05:54:20;;;;;;;;;;;;;;;3.62;100.00;101258.31;5568526;32;34878;-70
2022/12/31 05:57:27;;;;;;;;;;;;;;;3.60;100.00;101254.94;5568708;32;33836;-70
2022/12/31 06:00:35;;;;;;;;;;;;;;;3.65;100.00;101252.84;5568665;32;34984;-70
2022/12/31 06:03:43;;;;;;;;;;;;;;;3.70;100.00;101255.16;5554475;32;33890;-70
2022/12/31 06:06:49;;;;;;;;;;;;;;;3.75;100.00;101255.69;5567562;32;34227;-71
2022/12/31 06:09:56;;;;;;;;;;;;;;;3.66;100.00;101254.53;5568492;32;34507;-70
2022/12/31 06:13:01;;;;;;;;;;;;;;;3.71;100.00;101269.97;5568025;32;34867;-69
2022/12/31 06:16:11;;;;;;;;;;;;;;;3.64;100.00;101272.16;5568424;32;34693;-70
2022/12/31 06:19:20;;;;;;;;;;;;;;;3.59;100.00;101261.13;5568344;32;34120;-70
2022/12/31 06:22:26;;;;;;;;;;;;;;;3.58;100.00;101253.38;5568375;32;34333;-69
2022/12/31 06:25:33;;;;;;;;;;;;;;;3.56;100.00;101256.09;5554834;32;35562;-70
2022/12/31 06:28:43;;;;;;;;;;;;;;;3.49;100.00;101252.16;5555423;32;34968;-70
2022/12/31 06:31:51;;;;;;;;;;;;;;;3.53;100.00;101263.31;5568052;32;34846;-70
2022/12/31 06:34:58;;;;;;;;;;;;;;;3.69;100.00;101262.19;5568230;32;34650;-70
2022/12/31 06:38:06;;;;;;;;;;;;;;;3.85;100.00;101256.75;5568150;32;34736;-70
2022/12/31 06:41:15;;;;;;;;;;;;;;;3.78;100.00;101260.72;5554841;32;34761;-70
2022/12/31 06:44:21;;;;;;;;;;;;;;;3.77;100.00;101265.16;5554741;32;34147;-70
2022/12/31 06:47:28;;;;;;;;;;;;;;;3.72;100.00;101280.38;5553555;32;33471;-70
2022/12/31 06:50:35;;;;;;;;;;;;;;;3.63;100.00;101274.91;5567987;32;34393;-70
2022/12/31 06:53:42;;;;;;;;;;;;;;;3.60;100.00;101285.56;5568072;32;34742;-70
2022/12/31 06:56:51;;;;;;;;;;;;;;;3.58;100.00;101282.22;5554545;32;34401;-70
2022/12/31 06:59:59;;;;;;;;;;;;;;;3.69;100.00;101280.56;5554702;32;34305;-70
2022/12/31 07:03:14;;;;;;;;;;;;;;;3.65;100.00;101283.50;5553864;32;34542;-70
2022/12/31 07:06:42;;;;;;;;;;;;;;;3.83;100.00;101288.34;5567656;32;34178;-70
2022/12/31 07:09:52;;;;;;;;;;;;;;;3.83;100.00;101288.34;5566817;32;34045;-69
2022/12/31 07:13:10;;;;;;;;;;;;;;;3.93;100.00;101293.81;5567586;32;34434;-70
2022/12/31 07:16:20;;;;;;;;;;;;;;;3.90;100.00;101296.66;5566537;32;34152;-70
2022/12/31 07:19:38;;;;;;;;;;;;;;;3.89;100.00;101302.84;5566700;32;34980;-70
2022/12/31 07:22:45;;;;;;;;;;;;;;;3.96;100.00;101306.78;5567838;32;34496;-71
2022/12/31 07:25:55;;;;;;;;;;;;;;;3.82;100.00;101312.09;5566704;32;34145;-71
2022/12/31 07:29:11;;;;;;;;;;;;;;;3.80;100.00;101308.72;5567196;32;35160;-71
2022/12/31 07:32:25;;;;;;;;;;;;;;;3.72;100.00;101305.78;5566737;32;34867;-71
2022/12/31 07:35:50;;;;;;;;;;;;;;;3.85;100.00;101291.72;5567735;32;34343;-71
2022/12/31 07:39:10;;;;;;;;;;;;;;;3.94;100.00;101296.34;5567383;32;34723;-71
2022/12/31 07:42:25;;;;;;;;;;;;;;;3.98;100.00;101299.59;5567613;32;34339;-71
2022/12/31 07:45:47;;;;;;;;;;;;;;;3.97;100.00;101308.41;5567056;32;34761;-71
2022/12/31 07:48:54;;;;;;;;;;;;;;;4.06;100.00;101318.34;5567268;32;34186;-71
2022/12/31 07:52:01;;;;;;;;;;;;;;;3.90;100.00;101323.75;5566400;32;34175;-71
2022/12/31 07:55:06;;;;;;;;;;;;;;;3.96;100.00;101326.94;5553554;32;33678;-71
2022/12/31 07:58:21;;;;;;;;;;;;;;;4.11;100.00;101323.28;5554273;32;34241;-70
2022/12/31 08:01:29;;;;;;;;;;;;;;;4.12;100.00;101328.41;5541633;32;34432;-71
2022/12/31 08:04:40;;;;;;;;;;;;;;;4.05;100.00;101326.31;5567490;32;34898;-71
2022/12/31 08:07:50;;;;;;;;;;;;;;;4.19;100.00;101328.84;5566442;32;34351;-69
2022/12/31 08:11:05;;;;;;;;;;;;;;;4.29;100.00;101322.88;5558145;32;34231;-71
2022/12/31 08:14:12;;;;;;;;;;;;;;;4.35;100.00;101340.84;5553778;32;34297;-71
2022/12/31 08:17:21;;;;;;;;;;;;;;;4.63;100.00;101342.41;5527793;32;33128;-71
2022/12/31 08:20:29;;;;;;;;;;;;;;;4.75;100.00;101345.94;5542537;32;34314;-71
2022/12/31 08:23:47;;;;;;;;;;;;;;;4.87;100.00;101339.00;5554083;32;34527;-71
2022/12/31 08:27:15;;;;;;;;;;;;;;;5.07;100.00;101356.84;5566037;32;34935;-71
2022/12/31 08:30:24;;;;;;;;;;;;;;;5.20;100.00;101373.44;5566149;32;33795;-69
2022/12/31 08:33:49;;;;;;;;;;;;;;;5.10;100.00;101368.00;5559464;32;34849;-70
2022/12/31 08:37:01;;;;;;;;;;;;;;;5.13;100.00;101388.81;5557407;32;34838;-71
2022/12/31 08:40:15;;;;;;;;;;;;;;;4.99;100.00;101388.09;5539632;32;32976;-68
2022/12/31 08:43:24;;;;;;;;;;;;;;;5.00;100.00;101384.53;5565122;32;34772;-69
2022/12/31 08:46:45;;;;;;;;;;;;;;;5.12;100.00;101391.56;5566688;32;34224;-69
2022/12/31 08:49:51;;;;;;;;;;;;;;;5.15;100.00;101397.44;5565850;32;34256;-69
2022/12/31 08:52:58;;;;;;;;;;;;;;;5.24;100.00;101403.84;5565327;32;32765;-70
2022/12/31 08:56:35;;;;;;;;;;;;;;;5.49;100.00;101403.78;5552656;32;33751;-70
2022/12/31 08:59:52;;;;;;;;;;;;;;;5.63;100.00;101408.03;5552679;32;34321;-70
2022/12/31 09:03:06;;;;;;;;;;;;;;;5.65;100.00;101404.34;5552392;32;33068;-70
2022/12/31 09:06:12;;;;;;;;;;;;;;;5.83;100.00;101386.37;5552521;32;33352;-70
2022/12/31 09:09:44;;;;;;;;;;;;;;;5.93;100.00;101407.63;5566141;32;34357;-70
2022/12/31 09:13:03;;;;;;;;;;;;;;;5.89;100.00;101401.75;5565850;32;34335;-70
2022/12/31 09:16:30;;;;;;;;;;;;;;;5.90;100.00;101402.59;5565761;32;34225;-70
2022/12/31 09:19:36;;;;;;;;;;;;;;;5.94;100.00;101389.09;5564688;32;34303;-71
2022/12/31 09:22:43;;;;;;;;;;;;;;;5.94;100.00;101391.72;5551617;32;34327;-70
2022/12/31 09:26:05;;;;;;;;;;;;;;;6.04;100.00;101386.63;5551861;32;33091;-71
2022/12/31 09:29:21;;;;;;;;;;;;;;;5.95;100.00;101382.87;5551962;32;34879;-71
2022/12/31 09:32:26;;;;;;;;;;;;;;;5.55;100.00;101382.28;5564908;32;34323;-70
2022/12/31 09:35:34;;;;;;;;;;;;;;;5.50;100.00;101386.19;5550404;32;33504;-71
2022/12/31 09:38:55;;;;;;;;;;;;;;;5.77;100.00;101359.63;5565345;32;34537;-70
2022/12/31 09:42:17;;;;;;;;;;;;;;;5.77;100.00;101364.91;5555492;32;34933;-70
2022/12/31 09:45:33;;;;;;;;;;;;;;;5.52;100.00;101374.59;5567310;32;34159;-70
2022/12/31 09:48:49;;;;;;;;;;;;;;;5.29;100.00;101343.00;5551530;32;34348;-70
2022/12/31 09:51:54;;;;;;;;;;;;;;;5.73;100.00;101337.12;5557644;32;34169;-70
2022/12/31 09:55:20;;;;;;;;;;;;;;;5.95;100.00;101337.25;5568006;32;34154;-70
2022/12/31 09:58:31;;;;;;;;;;;;;;;5.98;100.00;101335.22;5568090;32;34448;-70
2022/12/31 10:01:46;;;;;;;;;;;;;;;6.04;100.00;101331.31;5554796;32;34222;-70
2022/12/31 10:05:00;;;;;;;;;;;;;;;6.39;100.00;101331.25;5567211;32;34278;-70
2022/12/31 10:08:13;;;;;;;;;;;;;;;6.22;100.00;101321.16;5544646;32;34296;-70
2022/12/31 10:11:39;;;;;;;;;;;;;;;6.39;100.00;101323.34;5547775;32;34232;-70
2022/12/31 10:15:04;;;;;;;;;;;;;;;6.38;100.00;101330.41;5547906;32;34141;-70
2022/12/31 10:18:31;;;;;;;;;;;;;;;6.72;100.00;101325.16;5547856;32;34308;-70
2022/12/31 10:21:41;;;;;;;;;;;;;;;7.08;100.00;101334.59;5547260;32;34513;-70
2022/12/31 10:25:06;;;;;;;;;;;;;;;7.18;100.00;101335.53;5554968;32;34374;-72
2022/12/31 10:28:18;;;;;;;;;;;;;;;6.64;100.00;101323.09;5562705;32;34047;-69
2022/12/31 10:31:30;;;;;;;;;;;;;;;6.87;100.00;101327.41;5567350;32;32795;-71
2022/12/31 10:34:51;;;;;;;;;;;;;;;7.13;100.00;101333.28;5567047;32;34747;-69
2022/12/31 10:38:01;;;;;;;;;;;;;;;7.07;100.00;101328.47;5550458;32;34182;-70
2022/12/31 10:41:06;;;;;;;;;;;;;;;6.72;100.00;101319.91;5548255;32;34126;-69
2022/12/31 10:44:18;;;;;;;;;;;;;;;6.81;100.00;101329.72;5557474;32;32996;-69
2022/12/31 10:47:41;;;;;;;;;;;;;;;6.95;100.00;101340.03;5552545;32;34897;-70
2022/12/31 10:50:51;;;;;;;;;;;;;;;6.68;100.00;101334.28;5547451;32;34677;-70
2022/12/31 10:54:09;;;;;;;;;;;;;;;6.54;100.00;101327.41;5549707;32;34488;-70
2022/12/31 10:57:16;;;;;;;;;;;;;;;6.69;100.00;101338.56;5537517;32;33015;-69
2022/12/31 11:00:22;;;;;;;;;;;;;;;6.42;100.00;101323.09;5548252;32;34055;-70
2022/12/31 11:03:37;;;;;;;;;;;;;;;6.58;100.00;101309.59;5534384;32;33619;-70
2022/12/31 11:07:07;;;;;;;;;;;;;;;6.57;100.00;101321.09;5548382;32;34710;-70
2022/12/31 11:10:17;;;;;;;;;;;;;;;6.34;100.00;101318.41;5548422;32;34901;-70
2022/12/31 11:13:32;;;;;;;;;;;;;;;6.53;100.00;101323.12;5547934;32;34859;-70
2022/12/31 11:16:37;;;;;;;;;;;;;;;6.60;100.00;101320.84;5536565;32;33669;-70
2022/12/31 11:19:56;;;;;;;;;;;;;;;6.74;100.00;101310.88;5567728;32;34494;-70
2022/12/31 11:23:30;;;;;;;;;;;;;;;6.72;100.00;101301.44;5567613;32;34073;-70
2022/12/31 11:26:55;;;;;;;;;;;;;;;6.56;100.00;101309.69;5562101;32;34340;-70
2022/12/31 11:30:05;;;;;;;;;;;;;;;6.80;100.00;101299.03;5535035;32;34172;-70
2022/12/31 11:33:24;;;;;;;;;;;;;;;6.64;100.00;101317.00;5534445;32;33532;-70
2022/12/31 11:36:37;;;;;;;;;;;;;;;6.79;100.00;101315.78;5547351;32;34023;-70
2022/12/31 11:40:01;;;;;;;;;;;;;;;7.14;100.00;101320.91;5548226;32;35535;-70
2022/12/31 11:43:14;;;;;;;;;;;;;;;7.16;100.00;101311.09;5548214;32;34506;-70
2022/12/31 11:46:33;;;;;;;;;;;;;;;7.18;100.00;101303.88;5550706;32;34068;-69
2022/12/31 11:49:54;;;;;;;;;;;;;;;7.08;100.00;101306.41;5534832;32;34440;-69
2022/12/31 11:53:01;;;;;;;;;;;;;;;7.43;100.00;101301.78;5546756;32;33133;-70
2022/12/31 11:56:17;;;;;;;;;;;;;;;7.48;100.00;101282.91;5546663;32;33775;-69
2022/12/31 11:59:26;;;;;;;;;;;;;;;7.50;100.00;101296.84;5547034;32;34232;-70
2022/12/31 12:02:37;;;;;;;;;;;;;;;7.48;100.00;101301.41;5547100;32;34403;-70
2022/12/31 12:05:44;;;;;;;;;;;;;;;7.71;100.00;101310.06;5547573;32;34764;-70
2022/12/31 12:08:52;;;;;;;;;;;;;;;7.80;100.00;101314.59;5534080;32;34027;-70
2022/12/31 12:12:03;;;;;;;;;;;;;;;7.52;100.00;101321.31;5546197;32;33281;-70
2022/12/31 12:15:16;;;;;;;;;;;;;;;7.57;100.00;101315.66;5546577;32;35190;-70
2022/12/31 12:18:26;;;;;;;;;;;;;;;7.82;100.00;101332.00;5547509;32;34305;-69
2022/12/31 12:21:34;;;;;;;;;;;;;;;8.00;100.00;101331.41;5521120;32;33304;-70
2022/12/31 12:24:51;;;;;;;;;;;;;;;8.00;100.00;101334.06;5547399;32;34290;-70
2022/12/31 12:27:59;;;;;;;;;;;;;;;8.13;100.00;101324.97;5546410;32;34408;-70
2022/12/31 12:31:16;;;;;;;;;;;;;;;8.18;100.00;101329.91;5546659;32;33119;-70
2022/12/31 12:34:26;;;;;;;;;;;;;;;8.32;100.00;101326.97;5549527;32;34949;-70
2022/12/31 12:37:34;;;;;;;;;;;;;;;8.31;100.00;101327.09;5565942;32;34793;-70
2022/12/31 12:40:51;;;;;;;;;;;;;;;8.23;100.00;101315.31;5566833;32;33891;-70
2022/12/31 12:44:03;;;;;;;;;;;;;;;8.28;100.00;101307.81;5563486;32;34689;-70
2022/12/31 12:47:16;;;;;;;;;;;;;;;7.92;100.00;101313.56;5546815;32;34236;-70
2022/12/31 12:50:37;;;;;;;;;;;;;;;8.08;100.00;101315.78;5545623;32;34961;-70
2022/12/31 12:53:51;;;;;;;;;;;;;;;8.18;100.00;101317.50;5545577;32;34052;-70
2022/12/31 12:57:18;;;;;;;;;;;;;;;8.31;100.00;101303.28;5533058;32;32672;-70
2022/12/31 13:00:32;;;;;;;;;;;;;;;7.74;100.00;101308.03;5546740;32;34844;-71
2022/12/31 13:03:44;;;;;;;;;;;;;;;7.91;100.00;101311.91;5546618;32;34256;-70
2022/12/31 13:07:29;;;;;;;;;;;;;;;7.89;100.00;101303.25;5548345;32;34933;-71
2022/12/31 13:10:41;;;;;;;;;;;;;;;7.83;100.00;101304.63;5553340;32;34044;-70
2022/12/31 13:13:51;;;;;;;;;;;;;;;8.03;100.00;101302.13;5539445;32;33456;-70
2022/12/31 13:17:17;;;;;;;;;;;;;;;7.55;100.00;101291.19;5554666;32;33314;-70
2022/12/31 13:20:34;;;;;;;;;;;;;;;7.57;100.00;101297.16;5555431;32;34931;-69
2022/12/31 13:23:47;;;;;;;;;;;;;;;7.54;100.00;101310.63;5554349;32;34542;-69
2022/12/31 13:26:57;;;;;;;;;;;;;;;7.61;100.00;101320.53;5568552;32;34505;-69
2022/12/31 13:30:22;;;;;;;;;;;;;;;7.63;100.00;101326.56;5568705;32;34127;-71
2022/12/31 13:33:35;;;;;;;;;;;;;;;7.71;100.00;101329.41;5554300;32;33511;-70
2022/12/31 13:36:47;;;;;;;;;;;;;;;7.37;100.00;101315.47;5568257;32;34265;-70
2022/12/31 13:39:57;;;;;;;;;;;;;;;7.30;100.00;101318.75;5567838;32;34206;-70
2022/12/31 13:43:07;;;;;;;;;;;;;;;7.42;100.00;101315.09;5553980;32;34765;-69
2022/12/31 13:46:19;;;;;;;;;;;;;;;7.52;100.00;101309.91;5553885;32;34358;-70
2022/12/31 13:49:42;;;;;;;;;;;;;;;7.68;100.00;101303.25;5555119;32;34050;-70
2022/12/31 13:53:06;;;;;;;;;;;;;;;7.45;100.00;101296.38;5568147;32;34015;-70
2022/12/31 13:56:17;;;;;;;;;;;;;;;7.60;100.00;101315.41;5567735;32;34707;-70
2022/12/31 13:59:27;;;;;;;;;;;;;;;7.53;100.00;101327.44;5566610;32;34351;-69
2022/12/31 14:02:42;;;;;;;;;;;;;;;7.53;100.00;101338.81;5567079;31;33788;-70
2022/12/31 14:05:58;;;;;;;;;;;;;;;7.61;100.00;101339.03;5541316;32;33965;-69
2022/12/31 14:09:04;;;;;;;;;;;;;;;7.67;100.00;101335.06;5568201;32;34973;-70
2022/12/31 14:12:14;;;;;;;;;;;;;;;7.42;100.00;101321.22;5555095;32;34735;-71
2022/12/31 14:15:44;;;;;;;;;;;;;;;7.40;100.00;101338.16;5568021;32;34061;-70
2022/12/31 14:18:52;;;;;;;;;;;;;;;7.47;100.00;101336.69;5550705;32;34111;-69
2022/12/31 14:22:14;;;;;;;;;;;;;;;7.46;100.00;101335.00;5554627;32;34152;-70
2022/12/31 14:25:24;;;;;;;;;;;;;;;7.66;100.00;101333.38;5540799;32;33089;-70
2022/12/31 14:28:35;;;;;;;;;;;;;;;7.65;100.00;101323.78;5567561;32;35246;-70
2022/12/31 14:32:02;;;;;;;;;;;;;;;7.56;100.00;101330.66;5568055;32;34173;-70
2022/12/31 14:35:15;;;;;;;;;;;;;;;7.55;100.00;101336.88;5554624;32;33441;-69
2022/12/31 14:38:34;;;;;;;;;;;;;;;7.50;100.00;101347.00;5568202;32;34277;-71
2022/12/31 14:42:16;;;;;;;;;;;;;;;7.34;100.00;101339.47;5566699;32;34564;-70
2022/12/31 14:45:32;;;;;;;;;;;;;;;7.51;100.00;101334.63;5500703;31;33973;-70
2022/12/31 14:48:53;;;;;;;;;;;;;;;7.36;100.00;101328.78;5554158;32;33093;-70
2022/12/31 14:52:08;;;;;;;;;;;;;;;7.28;100.00;101325.94;5554290;32;32593;-70
2022/12/31 14:55:14;;;;;;;;;;;;;;;7.19;100.00;101327.50;5566598;32;34136;-70
2022/12/31 14:58:39;;;;;;;;;;;;;;;7.16;100.00;101337.47;5567919;32;34129;-70
2022/12/31 15:01:48;;;;;;;;;;;;;;;7.07;100.00;101331.13;5567844;32;34851;-70
2022/12/31 15:05:12;;;;;;;;;;;;;;;7.01;100.00;101328.16;5554670;32;33738;-70
2022/12/31 15:08:30;;;;;;;;;;;;;;;6.98;100.00;101335.34;5566521;31;34374;-70
2022/12/31 15:11:49;;;;;;;;;;;;;;;7.00;100.00;101324.66;5540942;32;33433;-70
2022/12/31 15:14:57;;;;;;;;;;;;;;;6.97;100.00;101320.47;5553585;32;32714;-70
2022/12/31 15:18:26;;;;;;;;;;;;;;;6.99;100.00;101320.34;5567729;32;34651;-70
2022/12/31 15:21:34;;;;;;;;;;;;;;;6.94;100.00;101333.06;5553469;32;33600;-70
2022/12/31 15:24:44;;;;;;;;;;;;;;;6.90;100.00;101335.09;5567719;32;34278;-69
2022/12/31 15:27:55;;;;;;;;;;;;;;;6.89;100.00;101349.25;5552454;32;34219;-69
2022/12/31 15:31:16;;;;;;;;;;;;;;;6.93;100.00;101349.84;5587051;31;34181;-69
2022/12/31 15:34:33;;;;;;;;;;;;;;;6.96;100.00;101346.97;5572515;31;33148;-69
2022/12/31 15:37:41;;;;;;;;;;;;;;;6.96;100.00;101347.81;5586813;31;34332;-69
2022/12/31 15:40:49;;;;;;;;;;;;;;;6.97;100.00;101335.47;5587103;31;34163;-69
2022/12/31 15:44:13;;;;;;;;;;;;;;;6.97;100.00;101348.66;5572799;31;34432;-69
2022/12/31 15:47:27;;;;;;;;;;;;;;;6.97;100.00;101370.56;5572262;31;33427;-69
2022/12/31 15:50:36;;;;;;;;;;;;;;;6.96;100.00;101383.91;5572938;31;33247;-69
2022/12/31 15:53:51;;;;;;;;;;;;;;;6.94;100.00;101378.75;5573815;31;34818;-70
2022/12/31 15:56:57;;;;;;;;;;;;;;;6.92;100.00;101364.81;5586966;31;34333;-69
2022/12/31 16:00:15;;;;;;;;;;;;;;;6.97;100.00;101351.31;5586621;31;34830;-69
2022/12/31 16:03:23;;;;;;;;;;;;;;;6.96;100.00;101350.47;5572576;31;32868;-70
2022/12/31 16:06:32;;;;;;;;;;;;;;;6.94;100.00;101348.87;5586638;31;34264;-70
2022/12/31 16:09:39;;;;;;;;;;;;;;;6.93;100.00;101341.91;5571918;31;33278;-70
2022/12/31 16:12:45;;;;;;;;;;;;;;;6.95;100.00;101350.56;5586605;31;34413;-70
2022/12/31 16:16:02;;;;;;;;;;;;;;;6.97;100.00;101364.50;5586786;31;34024;-70
2022/12/31 16:19:24;;;;;;;;;;;;;;;7.00;100.00;101353.69;5573012;31;34617;-71
2022/12/31 16:22:37;;;;;;;;;;;;;;;6.98;100.00;101358.22;5551242;32;35304;-70
2022/12/31 16:25:44;;;;;;;;;;;;;;;6.98;100.00;101358.22;5553294;32;34223;-70
2022/12/31 16:28:51;;;;;;;;;;;;;;;6.89;100.00;101351.03;5566453;31;34742;-70
2022/12/31 16:31:58;;;;;;;;;;;;;;;6.83;100.00;101351.50;5566913;32;34879;-70
2022/12/31 16:35:21;;;;;;;;;;;;;;;6.77;100.00;101341.47;5563919;32;34308;-70